createdAt,value
2018-10-02T00:00:26.285Z,6.50
2018-10-02T00:02:56.242Z,8.80
2018-10-02T00:05:25.960Z,4.07
2018-10-02T00:07:55.872Z,9.00
2018-10-02T00:10:25.296Z,5.40
2018-10-02T00:12:59.851Z,6.80
2018-10-02T00:15:29.300Z,7.13
2018-10-02T00:17:58.905Z,7.47
2018-10-02T00:20:28.340Z,6.03
2018-10-02T00:22:58.016Z,5.63
2018-10-02T00:25:27.623Z,7.43
2018-10-02T00:27:57.071Z,6.20
2018-10-02T00:30:26.492Z,7.63
2018-10-02T00:32:55.920Z,6.80
2018-10-02T00:35:25.312Z,6.07
2018-10-02T00:37:54.740Z,6.70
2018-10-02T00:40:24.469Z,6.63
2018-10-02T00:42:54.001Z,8.07
2018-10-02T00:45:23.656Z,6.23
2018-10-02T00:47:53.093Z,8.07
2018-10-02T00:50:22.523Z,8.57
2018-10-02T00:52:52.478Z,7.17
2018-10-02T00:55:22.185Z,7.90
2018-10-02T00:57:51.631Z,7.97
2018-10-02T01:00:21.196Z,8.07
2018-10-02T01:02:50.801Z,9.67
2018-10-02T01:05:20.306Z,8.60
2018-10-02T01:07:49.708Z,7.83
2018-10-02T01:10:19.722Z,10.97
2018-10-02T01:12:49.388Z,7.70
2018-10-02T01:15:18.836Z,12.43
2018-10-02T01:17:48.439Z,7.83
2018-10-02T01:20:17.940Z,7.33
2018-10-02T01:22:47.550Z,5.33
2018-10-02T01:25:17.157Z,6.23
2018-10-02T01:27:46.767Z,7.30
2018-10-02T01:30:16.372Z,7.47
2018-10-02T01:32:45.900Z,8.83
2018-10-02T01:35:15.583Z,9.33
2018-10-02T01:37:45.352Z,9.13
2018-10-02T01:40:15.003Z,8.00
2018-10-02T01:42:44.497Z,10.43
2018-10-02T01:45:14.010Z,7.43
2018-10-02T01:47:43.630Z,9.43
2018-10-02T01:50:13.224Z,7.27
2018-10-02T01:52:42.725Z,6.33
2018-10-02T01:55:12.152Z,8.53
2018-10-02T01:57:41.633Z,6.53
2018-10-02T02:00:11.241Z,8.33
2018-10-02T02:02:40.885Z,7.43
2018-10-02T02:05:10.279Z,6.07
2018-10-02T02:07:39.708Z,7.87
2018-10-02T02:10:09.182Z,8.90
2018-10-02T02:12:38.774Z,8.30
2018-10-02T02:15:08.471Z,8.27
2018-10-02T02:17:37.976Z,7.33
2018-10-02T02:20:07.485Z,8.00
2018-10-02T02:22:37.100Z,9.20
2018-10-02T02:25:06.571Z,10.03
2018-10-02T02:27:36.195Z,8.87
2018-10-02T02:30:05.802Z,7.67
2018-10-02T02:32:35.511Z,6.40
2018-10-02T02:35:04.984Z,8.97
2018-10-02T02:37:34.663Z,8.30
2018-10-02T02:40:05.567Z,8.23
2018-10-02T02:42:35.063Z,9.20
2018-10-02T02:45:04.441Z,8.23
2018-10-02T02:47:39.185Z,10.17
2018-10-02T02:50:13.820Z,6.33
2018-10-02T02:52:47.832Z,6.27
2018-10-02T02:55:17.330Z,10.83
2018-10-02T02:57:46.835Z,10.10
2018-10-02T03:00:16.349Z,8.23
2018-10-02T03:02:45.951Z,8.20
2018-10-02T03:05:15.552Z,8.27
2018-10-02T03:07:45.170Z,7.33
2018-10-02T03:10:14.769Z,9.57
2018-10-02T03:12:44.280Z,6.57
2018-10-02T03:15:13.704Z,8.53
2018-10-02T03:17:43.286Z,9.30
2018-10-02T03:20:12.883Z,7.23
2018-10-02T03:22:42.492Z,6.23
2018-10-02T03:25:12.202Z,5.73
2018-10-02T03:27:41.808Z,6.97
2018-10-02T03:30:11.367Z,5.73
2018-10-02T03:32:41.017Z,8.70
2018-10-02T03:35:10.627Z,8.63
2018-10-02T03:37:40.378Z,8.83
2018-10-02T03:40:09.944Z,6.43
2018-10-02T03:42:39.392Z,10.53
2018-10-02T03:45:09.053Z,8.57
2018-10-02T03:47:38.459Z,9.47
2018-10-02T03:50:08.060Z,9.63
2018-10-02T03:52:37.666Z,8.37
2018-10-02T03:55:07.983Z,9.80
2018-10-02T03:57:37.758Z,10.70
2018-10-02T04:00:07.510Z,6.03
2018-10-02T04:02:37.220Z,11.10
2018-10-02T04:05:06.826Z,11.33
2018-10-02T04:07:36.256Z,7.50
2018-10-02T04:10:05.936Z,10.97
2018-10-02T04:12:35.646Z,8.27
2018-10-02T04:15:05.354Z,10.63
2018-10-02T04:17:34.967Z,10.13
2018-10-02T04:20:04.574Z,8.70
2018-10-02T04:22:34.173Z,9.20
2018-10-02T04:25:03.883Z,13.23
2018-10-02T04:27:33.347Z,9.30
2018-10-02T04:30:02.891Z,9.00
2018-10-02T04:32:32.337Z,8.67
2018-10-02T04:35:01.799Z,9.27
2018-10-02T04:37:31.409Z,13.07
2018-10-02T04:40:00.907Z,9.57
2018-10-02T04:42:30.616Z,9.33
2018-10-02T04:45:00.036Z,10.67
2018-10-02T04:47:29.539Z,11.80
2018-10-02T04:49:59.030Z,9.80
2018-10-02T04:52:28.456Z,10.90
2018-10-02T04:54:57.887Z,10.57
2018-10-02T04:57:27.539Z,11.97
2018-10-02T04:59:57.047Z,13.23
2018-10-02T05:02:26.640Z,11.23
2018-10-02T05:04:56.263Z,8.43
2018-10-02T05:07:25.727Z,10.33
2018-10-02T05:09:55.143Z,10.20
2018-10-02T05:12:24.770Z,13.50
2018-10-02T05:14:54.478Z,10.27
2018-10-02T05:17:23.932Z,11.77
2018-10-02T05:19:53.486Z,11.07
2018-10-02T05:22:22.955Z,10.47
2018-10-02T05:24:52.599Z,13.00
2018-10-02T05:27:22.185Z,9.87
2018-10-02T05:29:51.520Z,9.83
2018-10-02T05:32:21.028Z,9.47
2018-10-02T05:34:50.744Z,13.10
2018-10-02T05:37:20.530Z,12.70
2018-10-02T05:39:50.108Z,11.83
2018-10-02T05:42:19.860Z,12.17
2018-10-02T05:44:50.329Z,11.17
2018-10-02T05:47:20.692Z,11.93
2018-10-02T05:49:50.869Z,9.80
2018-10-02T05:52:21.390Z,9.63
2018-10-02T05:54:51.156Z,9.53
2018-10-02T05:57:20.726Z,12.13
2018-10-02T05:59:50.264Z,13.13
2018-10-02T06:02:22.292Z,11.00
2018-10-02T06:04:51.839Z,12.83
2018-10-02T06:07:21.541Z,14.23
2018-10-02T06:09:51.092Z,12.57
2018-10-02T06:12:21.041Z,13.03
2018-10-02T06:14:50.673Z,13.60
2018-10-02T06:17:20.292Z,15.80
2018-10-02T06:19:49.780Z,13.93
2018-10-02T06:22:19.208Z,13.60
2018-10-02T06:24:48.884Z,17.17
2018-10-02T06:27:18.528Z,14.67
2018-10-02T06:29:52.435Z,13.97
2018-10-02T06:41:29.148Z,16.53
2018-10-02T06:43:58.741Z,17.60
2018-10-02T06:46:28.454Z,19.20
2018-10-02T06:48:58.271Z,16.30
2018-10-02T06:51:28.871Z,14.30
2018-10-02T06:53:58.711Z,15.80
2018-10-02T06:56:28.360Z,18.90
2018-10-02T06:58:58.017Z,16.90
2018-10-02T07:01:27.501Z,14.30
2018-10-02T07:03:57.128Z,19.57
2018-10-02T07:06:26.688Z,17.13
2018-10-02T07:08:56.506Z,16.83
2018-10-02T07:11:26.264Z,19.37
2018-10-02T07:13:55.870Z,13.53
2018-10-02T07:16:25.574Z,15.63
2018-10-02T07:18:55.044Z,16.57
2018-10-02T07:21:24.784Z,14.33
2018-10-02T07:23:54.392Z,15.73
2018-10-02T07:26:24.019Z,16.33
2018-10-02T07:28:53.706Z,16.97
2018-10-02T07:31:23.239Z,15.33
2018-10-02T07:33:52.918Z,15.87
2018-10-02T07:36:22.529Z,17.13
2018-10-02T07:38:54.551Z,17.80
2018-10-02T07:41:24.419Z,17.70
2018-10-02T07:43:53.992Z,17.60
2018-10-02T07:46:24.231Z,15.63
2018-10-02T07:48:56.600Z,18.03
2018-10-02T07:51:26.212Z,17.50
2018-10-02T07:53:55.775Z,15.90
2018-10-02T07:56:25.397Z,15.97
2018-10-02T07:58:55.025Z,16.97
2018-10-02T08:01:24.734Z,15.17
2018-10-02T08:03:54.204Z,17.40
2018-10-02T08:06:23.845Z,19.90
2018-10-02T08:08:53.397Z,16.70
2018-10-02T08:11:22.960Z,19.03
2018-10-02T08:13:52.565Z,18.67
2018-10-02T08:16:22.118Z,19.70
2018-10-02T08:18:51.576Z,19.73
2018-10-02T08:21:21.388Z,24.40
2018-10-02T08:23:50.997Z,17.70
2018-10-02T08:26:20.487Z,21.03
2018-10-02T08:28:50.155Z,18.53
2018-10-02T08:31:19.710Z,18.13
2018-10-02T08:33:49.323Z,18.07
2018-10-02T08:36:19.034Z,20.67
2018-10-02T08:38:48.538Z,22.00
2018-10-02T08:41:17.998Z,22.17
2018-10-02T08:43:47.627Z,19.93
2018-10-02T08:46:17.155Z,15.73
2018-10-02T08:48:46.857Z,18.50
2018-10-02T08:51:16.559Z,19.00
2018-10-02T08:53:46.134Z,10.90
2018-10-02T08:56:15.777Z,14.30
2018-10-02T08:58:45.299Z,14.20
2018-10-02T09:01:14.873Z,13.37
2018-10-02T09:03:44.491Z,16.63
2018-10-02T09:06:14.031Z,18.20
2018-10-02T09:08:43.804Z,18.60
2018-10-02T09:11:13.216Z,15.77
2018-10-02T09:13:42.965Z,18.63
2018-10-02T09:16:12.761Z,14.70
2018-10-02T09:18:42.259Z,16.40
2018-10-02T09:21:11.942Z,17.70
2018-10-02T09:23:41.575Z,13.00
2018-10-02T09:26:11.259Z,13.17
2018-10-02T09:28:40.872Z,10.80
2018-10-02T09:33:22.437Z,15.73
2018-10-02T09:35:57.295Z,9.60
2018-10-02T09:38:32.119Z,10.63
2018-10-02T09:41:06.849Z,8.23
2018-10-02T09:43:39.976Z,17.00
2018-10-02T09:46:09.541Z,12.63
2018-10-02T09:48:39.243Z,15.27
2018-10-02T09:51:08.929Z,10.10
2018-10-02T09:53:38.371Z,9.60
2018-10-02T09:56:08.097Z,7.67
2018-10-02T09:58:37.765Z,10.63
2018-10-02T10:02:10.259Z,7.80
2018-10-02T10:04:39.966Z,7.83
2018-10-02T10:07:09.435Z,8.77
2018-10-02T10:09:39.183Z,6.37
2018-10-02T10:12:08.668Z,7.20
2018-10-02T10:14:38.393Z,7.60
2018-10-02T10:17:07.992Z,5.80
2018-10-02T10:19:37.709Z,6.97
2018-10-02T10:22:07.328Z,6.63
2018-10-02T10:24:36.742Z,6.30
2018-10-02T10:27:06.217Z,8.30
2018-10-02T10:29:35.828Z,7.40
2018-10-02T10:32:05.536Z,9.50
2018-10-02T10:34:35.017Z,6.30
2018-10-02T10:37:04.464Z,8.07
2018-10-02T10:39:34.136Z,7.87
2018-10-02T10:42:03.964Z,5.63
2018-10-02T10:44:33.526Z,8.27
2018-10-02T10:47:03.266Z,6.17
2018-10-02T10:49:32.687Z,6.87
2018-10-02T10:52:02.202Z,8.30
2018-10-02T10:54:31.620Z,6.20
2018-10-02T10:57:01.192Z,7.13
2018-10-02T10:59:30.902Z,7.20
2018-10-02T11:02:00.610Z,6.47
2018-10-02T11:04:30.021Z,7.40
2018-10-02T11:06:59.477Z,5.33
2018-10-02T11:09:29.057Z,8.53
2018-10-02T11:11:58.565Z,7.20
2018-10-02T11:14:29.020Z,6.33
2018-10-02T11:16:58.697Z,4.43
2018-10-02T11:19:28.319Z,8.23
2018-10-02T11:21:58.185Z,6.33
2018-10-02T11:24:27.786Z,6.50
2018-10-02T11:26:57.232Z,6.67
2018-10-02T11:29:27.227Z,5.80
2018-10-02T11:31:57.034Z,5.83
2018-10-02T11:34:26.760Z,7.50
2018-10-02T11:36:56.235Z,6.20
2018-10-02T11:39:25.705Z,6.47
2018-10-02T11:41:55.342Z,5.00
2018-10-02T11:44:24.974Z,6.33
2018-10-02T11:46:54.655Z,6.03
2018-10-02T11:49:24.166Z,6.17
2018-10-02T11:51:53.768Z,5.17
2018-10-02T11:54:23.374Z,4.87
2018-10-02T11:56:53.020Z,7.07
2018-10-02T11:59:23.040Z,7.67
2018-10-02T12:01:52.585Z,4.97
2018-10-02T12:04:22.124Z,7.90
2018-10-02T12:06:51.662Z,6.07
2018-10-02T12:09:21.234Z,6.03
2018-10-02T12:11:51.028Z,6.27
2018-10-02T12:14:20.788Z,8.07
2018-10-02T12:16:50.389Z,5.00
2018-10-02T12:19:19.946Z,5.57
2018-10-02T12:21:49.764Z,6.50
2018-10-02T12:24:19.296Z,6.17
2018-10-02T12:26:49.011Z,4.83
2018-10-02T12:29:18.488Z,5.47
2018-10-02T12:31:48.188Z,5.53
2018-10-02T12:34:17.622Z,4.87
2018-10-02T12:36:47.895Z,4.87
2018-10-02T12:39:17.404Z,5.10
2018-10-02T12:41:46.928Z,4.93
2018-10-02T12:44:16.328Z,4.30
2018-10-02T12:46:46.080Z,6.30
2018-10-02T12:49:17.453Z,6.87
2018-10-02T12:51:47.191Z,5.30
2018-10-02T12:54:16.899Z,3.73
2018-10-02T12:56:46.609Z,5.70
2018-10-02T12:59:16.233Z,4.63
2018-10-02T13:01:45.705Z,3.87
2018-10-02T13:04:15.293Z,4.17
2018-10-02T13:06:45.214Z,4.70
2018-10-02T13:09:14.705Z,4.47
2018-10-02T13:11:44.271Z,6.57
2018-10-02T13:14:13.817Z,4.10
2018-10-02T13:16:43.850Z,3.80
2018-10-02T13:19:13.480Z,7.53
2018-10-02T13:21:42.865Z,3.17
2018-10-02T13:24:12.331Z,2.23
2018-10-02T13:26:41.958Z,3.53
2018-10-02T13:29:11.700Z,4.23
2018-10-02T13:31:41.406Z,2.40
2018-10-02T13:34:11.015Z,4.67
2018-10-02T13:36:40.652Z,4.77
2018-10-02T13:39:10.796Z,3.67
2018-10-02T13:41:40.425Z,2.60
2018-10-02T13:44:10.158Z,2.67
2018-10-02T13:46:40.038Z,2.10
2018-10-02T13:49:09.945Z,3.67
2018-10-02T13:51:39.448Z,2.40
2018-10-02T13:54:09.100Z,4.63
2018-10-02T13:56:38.803Z,2.10
2018-10-02T13:59:08.411Z,3.33
2018-10-02T14:01:38.120Z,1.93
2018-10-02T14:04:09.428Z,2.63
2018-10-02T14:06:39.692Z,2.60
2018-10-02T14:09:09.955Z,2.20
2018-10-02T14:11:39.827Z,1.73
2018-10-02T14:14:09.537Z,2.53
2018-10-02T14:16:39.445Z,2.30
2018-10-02T14:19:09.110Z,3.40
2018-10-02T14:21:38.609Z,3.10
2018-10-02T14:24:08.072Z,2.63
2018-10-02T14:26:37.977Z,2.20
2018-10-02T14:29:08.074Z,1.87
2018-10-02T14:31:37.685Z,2.50
2018-10-02T14:34:07.081Z,5.17
2018-10-02T14:36:36.819Z,2.63
2018-10-02T14:39:08.040Z,1.97
2018-10-02T14:41:37.541Z,2.63
2018-10-02T14:44:07.181Z,1.83
2018-10-02T14:46:36.780Z,2.33
2018-10-02T14:49:06.876Z,2.77
2018-10-02T14:51:36.436Z,1.40
2018-10-02T14:54:06.104Z,1.80
2018-10-02T14:56:35.611Z,2.23
2018-10-02T14:59:05.371Z,1.60
2018-10-02T15:01:34.881Z,1.50
2018-10-02T15:04:04.429Z,1.50
2018-10-02T15:06:34.067Z,2.63
2018-10-02T15:09:04.459Z,1.80
2018-10-02T15:11:33.902Z,1.63
2018-10-02T15:14:03.569Z,2.37
2018-10-02T15:16:33.011Z,2.37
2018-10-02T15:19:02.579Z,1.23
2018-10-02T15:21:32.019Z,1.73
2018-10-02T15:24:03.416Z,1.60
2018-10-02T15:26:32.937Z,1.70
2018-10-02T15:29:02.540Z,1.37
2018-10-02T15:31:32.103Z,1.57
2018-10-02T15:34:01.755Z,1.30
2018-10-02T15:36:31.668Z,2.63
2018-10-02T15:39:01.097Z,1.73
2018-10-02T15:41:30.676Z,1.67
2018-10-02T15:44:00.284Z,1.43
2018-10-02T15:46:29.889Z,1.67
2018-10-02T15:48:59.545Z,2.43
2018-10-02T15:51:31.237Z,1.67
2018-10-02T15:54:01.951Z,2.03
2018-10-02T15:56:31.493Z,1.63
2018-10-02T15:59:01.049Z,1.90
2018-10-02T16:01:30.767Z,1.63
2018-10-02T16:04:00.381Z,1.80
2018-10-02T16:06:30.126Z,1.50
2018-10-02T16:08:59.728Z,2.20
2018-10-02T16:11:29.139Z,1.67
2018-10-02T16:13:58.717Z,1.60
2018-10-02T16:16:28.193Z,2.40
2018-10-02T16:18:57.744Z,1.60
2018-10-02T16:21:27.152Z,1.80
2018-10-02T16:23:56.874Z,2.03
2018-10-02T16:26:26.302Z,2.67
2018-10-02T16:28:55.910Z,1.50
2018-10-02T16:31:25.451Z,1.40
2018-10-02T16:33:55.116Z,1.50
2018-10-02T16:36:24.887Z,1.50
2018-10-02T16:38:54.712Z,2.30
2018-10-02T16:41:24.315Z,1.70
2018-10-02T16:43:54.115Z,1.97
2018-10-02T16:46:23.621Z,1.70
2018-10-02T16:48:53.124Z,3.47
2018-10-02T16:51:22.777Z,2.00
2018-10-02T16:53:52.241Z,2.10
2018-10-02T16:56:21.945Z,2.07
2018-10-02T16:58:51.755Z,2.00
2018-10-02T17:01:21.362Z,2.20
2018-10-02T17:03:50.905Z,3.77
2018-10-02T17:06:20.344Z,2.30
2018-10-02T17:08:49.826Z,2.73
2018-10-02T17:11:19.277Z,2.90
2018-10-02T17:13:48.893Z,2.80
2018-10-02T17:16:18.591Z,9.57
2018-10-02T17:18:48.145Z,6.27
2018-10-02T17:21:17.806Z,3.10
2018-10-02T17:23:47.513Z,3.83
2018-10-02T17:26:16.981Z,4.00
2018-10-02T17:28:46.635Z,4.10
2018-10-02T17:31:16.437Z,6.63
2018-10-02T17:33:46.319Z,4.57
2018-10-02T17:36:15.854Z,3.70
2018-10-02T17:38:45.460Z,4.50
2018-10-02T17:41:15.168Z,3.20
2018-10-02T17:43:44.879Z,3.17
2018-10-02T17:46:14.588Z,5.93
2018-10-02T17:48:44.197Z,4.03
2018-10-02T17:51:13.690Z,4.47
2018-10-02T17:53:43.203Z,4.63
2018-10-02T17:56:12.814Z,3.50
2018-10-02T17:58:42.548Z,3.53
2018-10-02T18:01:12.127Z,3.87
2018-10-02T18:03:41.732Z,4.03
2018-10-02T18:06:11.350Z,4.03
2018-10-02T18:08:40.896Z,4.30
2018-10-02T18:11:10.452Z,5.10
2018-10-02T18:13:43.024Z,3.80
2018-10-02T18:16:12.489Z,4.30
2018-10-02T18:18:42.448Z,4.57
2018-10-02T18:21:11.951Z,4.80
2018-10-02T18:23:41.420Z,5.10
2018-10-02T18:26:10.880Z,5.00
2018-10-02T18:28:40.577Z,5.03
2018-10-02T18:31:10.373Z,5.03
2018-10-02T18:33:39.824Z,5.70
2018-10-02T18:36:09.308Z,5.63
2018-10-02T18:38:38.865Z,5.37
2018-10-02T18:41:08.396Z,6.03
2018-10-02T18:43:38.049Z,6.00
2018-10-02T18:46:07.680Z,6.53
2018-10-02T18:48:37.139Z,7.20
2018-10-02T18:51:06.668Z,6.73
2018-10-02T18:53:36.097Z,6.20
2018-10-02T18:56:05.970Z,6.80
2018-10-02T18:58:35.593Z,7.50
2018-10-02T19:01:05.024Z,8.33
2018-10-02T19:03:34.528Z,7.00
2018-10-02T19:06:04.184Z,7.00
2018-10-02T19:08:38.874Z,7.17
2018-10-02T19:11:13.612Z,7.20
2018-10-02T19:13:43.211Z,7.30
2018-10-02T19:16:17.849Z,7.27
2018-10-02T19:18:47.491Z,7.77
2018-10-02T19:21:17.323Z,8.03
2018-10-02T19:23:47.071Z,7.70
2018-10-02T19:26:23.089Z,8.63
2018-10-02T19:28:52.736Z,8.03
2018-10-02T19:31:27.497Z,8.00
2018-10-02T19:33:57.416Z,8.03
2018-10-02T19:36:27.076Z,9.50
2018-10-02T19:39:06.752Z,8.53
2018-10-02T19:41:36.282Z,8.60
2018-10-02T19:44:06.033Z,8.70
2018-10-02T19:46:42.006Z,9.00
2018-10-02T19:49:11.700Z,9.07
2018-10-02T19:51:46.628Z,10.07
2018-10-02T19:54:16.348Z,10.17
2018-10-02T19:56:45.978Z,9.83
2018-10-02T19:59:15.652Z,11.10
2018-10-02T20:01:45.077Z,11.00
2018-10-02T20:04:14.593Z,11.87
2018-10-02T20:06:44.091Z,9.93
2018-10-02T20:09:13.985Z,10.63
2018-10-02T20:11:43.493Z,12.13
2018-10-02T20:14:13.498Z,11.83
2018-10-02T20:16:43.935Z,12.33
2018-10-02T20:19:13.538Z,11.40
2018-10-02T20:21:43.248Z,11.37
2018-10-02T20:24:12.667Z,11.83
2018-10-02T20:26:42.351Z,11.83
2018-10-02T20:29:12.057Z,11.63
2018-10-02T20:31:46.377Z,12.27
2018-10-02T20:34:15.994Z,12.73
2018-10-02T20:36:45.992Z,12.63
2018-10-02T20:39:15.501Z,12.50
2018-10-02T20:41:45.311Z,12.80
2018-10-02T20:44:14.852Z,12.60
2018-10-02T20:46:44.535Z,12.23
2018-10-02T20:49:14.212Z,13.27
2018-10-02T20:51:44.645Z,13.20
2018-10-02T20:54:14.309Z,14.53
2018-10-02T20:56:43.873Z,13.70
2018-10-02T20:59:13.382Z,13.57
2018-10-02T21:01:43.015Z,13.20
2018-10-02T21:04:12.740Z,14.00
2018-10-02T21:06:42.234Z,12.73
2018-10-02T21:09:11.672Z,12.83
2018-10-02T21:11:41.201Z,13.20
2018-10-02T21:14:10.741Z,13.70
2018-10-02T21:16:40.579Z,13.00
2018-10-02T21:19:10.229Z,14.10
2018-10-02T21:21:39.851Z,14.47
2018-10-02T21:24:09.253Z,14.63
2018-10-02T21:26:38.824Z,14.77
2018-10-02T21:29:08.456Z,14.10
2018-10-02T21:31:38.174Z,15.30
2018-10-02T21:34:07.642Z,14.40
2018-10-02T21:36:37.373Z,15.53
2018-10-02T21:39:08.805Z,14.00
2018-10-02T21:41:38.332Z,15.70
2018-10-02T21:44:07.989Z,15.33
2018-10-02T21:46:37.849Z,14.93
2018-10-02T21:49:07.764Z,16.03
2018-10-02T21:51:37.573Z,15.10
2018-10-02T21:54:07.185Z,14.80
2018-10-02T21:56:36.889Z,16.73
2018-10-02T21:59:06.601Z,16.20
2018-10-02T22:01:36.207Z,16.50
2018-10-02T22:04:06.017Z,18.30
2018-10-02T22:06:35.591Z,17.87
2018-10-02T22:09:10.436Z,17.13
2018-10-02T22:11:40.165Z,17.03
2018-10-02T22:14:09.772Z,15.73
2018-10-02T22:16:39.353Z,15.60
2018-10-02T22:19:09.082Z,15.43
2018-10-02T22:21:44.726Z,14.93
2018-10-02T22:24:14.540Z,14.70
2018-10-02T22:26:44.149Z,15.93
2018-10-02T22:29:13.969Z,16.47
2018-10-02T22:31:43.672Z,15.03
2018-10-02T22:34:13.440Z,14.83
2018-10-02T22:36:43.087Z,13.60
2018-10-02T22:39:12.905Z,13.23
2018-10-02T22:41:42.352Z,13.53
2018-10-02T22:44:11.945Z,13.30
2018-10-02T22:46:41.513Z,14.40
2018-10-02T22:49:11.222Z,14.23
2018-10-02T22:51:41.033Z,15.03
2018-10-02T22:54:10.643Z,12.60
2018-10-02T22:56:40.249Z,15.13
2018-10-02T22:59:09.911Z,13.53
2018-10-02T23:01:39.467Z,15.00
2018-10-02T23:04:09.121Z,12.47
2018-10-02T23:06:38.781Z,13.87
2018-10-02T23:09:11.196Z,14.00
2018-10-02T23:11:40.959Z,13.57
2018-10-02T23:14:10.672Z,11.30
2018-10-02T23:16:40.274Z,14.53
2018-10-02T23:19:09.880Z,10.93
2018-10-02T23:21:39.634Z,15.33
2018-10-02T23:24:09.199Z,15.43
2018-10-02T23:26:38.736Z,11.80
2018-10-02T23:29:08.309Z,13.93
2018-10-02T23:31:38.049Z,14.67
2018-10-02T23:34:07.624Z,13.93
2018-10-02T23:36:37.228Z,14.87
2018-10-02T23:39:08.123Z,13.67
2018-10-02T23:41:37.875Z,14.50
2018-10-02T23:44:18.764Z,12.20
2018-10-02T23:46:48.282Z,14.07
2018-10-02T23:49:17.983Z,12.83
2018-10-02T23:51:47.291Z,16.53
2018-10-02T23:54:16.697Z,12.73
2018-10-02T23:56:46.096Z,13.63
2018-10-02T23:59:15.499Z,14.43
